sensor_id;sensor_type;location;lat;lon;timestamp;pressure;altitude;pressure_sealevel;temperature;humidity
2675;BME280;1347;42.122;24.746;2023-05-24T00:01:23;99265.84;;;16.40;93.72
2675;BME280;1347;42.122;24.746;2023-05-24T00:03:51;99272.16;;;16.44;93.28
2675;BME280;1347;42.122;24.746;2023-05-24T00:06:18;99266.56;;;16.48;93.29
2675;BME280;1347;42.122;24.746;2023-05-24T00:08:45;99272.94;;;16.45;93.47
2675;BME280;1347;42.122;24.746;2023-05-24T00:11:13;99255.53;;;16.44;93.32
2675;BME280;1347;42.122;24.746;2023-05-24T00:13:40;99253.59;;;16.41;93.15
2675;BME280;1347;42.122;24.746;2023-05-24T00:16:07;99250.47;;;16.39;93.05
2675;BME280;1347;42.122;24.746;2023-05-24T00:18:34;99249.31;;;16.37;93.16
2675;BME280;1347;42.122;24.746;2023-05-24T00:21:05;99262.38;;;16.36;93.26
2675;BME280;1347;42.122;24.746;2023-05-24T00:23:32;99262.41;;;16.33;93.94
2675;BME280;1347;42.122;24.746;2023-05-24T00:26:01;99263.22;;;16.30;93.97
2675;BME280;1347;42.122;24.746;2023-05-24T00:28:29;99264.41;;;16.29;93.97
2675;BME280;1347;42.122;24.746;2023-05-24T00:30:56;99262.88;;;16.28;94.11
2675;BME280;1347;42.122;24.746;2023-05-24T00:33:23;99268.06;;;16.22;94.74
2675;BME280;1347;42.122;24.746;2023-05-24T00:35:52;99268.00;;;15.92;96.84
2675;BME280;1347;42.122;24.746;2023-05-24T00:38:21;99262.59;;;15.81;97.37
2675;BME280;1347;42.122;24.746;2023-05-24T00:40:48;99255.88;;;15.82;95.10
2675;BME280;1347;42.122;24.746;2023-05-24T00:43:14;99254.78;;;15.72;95.00
2675;BME280;1347;42.122;24.746;2023-05-24T00:45:43;99243.72;;;15.76;94.47
2675;BME280;1347;42.122;24.746;2023-05-24T00:48:10;99245.22;;;15.80;95.08
2675;BME280;1347;42.122;24.746;2023-05-24T00:50:38;99241.66;;;15.83;94.83
2675;BME280;1347;42.122;24.746;2023-05-24T00:53:06;99236.88;;;15.88;94.98
2675;BME280;1347;42.122;24.746;2023-05-24T00:55:33;99236.44;;;15.89;94.71
2675;BME280;1347;42.122;24.746;2023-05-24T00:58:01;99235.66;;;15.89;95.03
2675;BME280;1347;42.122;24.746;2023-05-24T01:00:29;99238.88;;;15.83;94.87
2675;BME280;1347;42.122;24.746;2023-05-24T01:02:57;99231.41;;;15.80;94.14
2675;BME280;1347;42.122;24.746;2023-05-24T01:05:25;99236.22;;;15.76;93.96
2675;BME280;1347;42.122;24.746;2023-05-24T01:07:58;99237.00;;;15.77;93.34
2675;BME280;1347;42.122;24.746;2023-05-24T01:10:36;99231.41;;;15.80;93.14
2675;BME280;1347;42.122;24.746;2023-05-24T01:13:13;99226.25;;;15.82;92.42
2675;BME280;1347;42.122;24.746;2023-05-24T01:15:50;99222.69;;;15.86;90.40
2675;BME280;1347;42.122;24.746;2023-05-24T01:18:24;99224.28;;;15.83;89.80
2675;BME280;1347;42.122;24.746;2023-05-24T01:21:02;99223.88;;;15.85;90.08
2675;BME280;1347;42.122;24.746;2023-05-24T01:23:40;99226.63;;;15.85;89.53
2675;BME280;1347;42.122;24.746;2023-05-24T01:26:18;99222.75;;;15.78;89.95
2675;BME280;1347;42.122;24.746;2023-05-24T01:28:48;99225.88;;;15.80;90.58
2675;BME280;1347;42.122;24.746;2023-05-24T01:31:17;99213.31;;;15.76;90.63
2675;BME280;1347;42.122;24.746;2023-05-24T01:33:44;99210.56;;;15.76;90.97
2675;BME280;1347;42.122;24.746;2023-05-24T01:36:11;99215.69;;;15.74;91.21
2675;BME280;1347;42.122;24.746;2023-05-24T01:38:38;99216.09;;;15.72;91.16
2675;BME280;1347;42.122;24.746;2023-05-24T01:41:17;99224.38;;;15.76;91.44
2675;BME280;1347;42.122;24.746;2023-05-24T01:43:52;99223.59;;;15.75;91.20
2675;BME280;1347;42.122;24.746;2023-05-24T01:46:26;99216.50;;;15.71;91.67
2675;BME280;1347;42.122;24.746;2023-05-24T01:49:02;99216.50;;;15.71;92.13
2675;BME280;1347;42.122;24.746;2023-05-24T01:51:40;99218.56;;;15.63;92.08
2675;BME280;1347;42.122;24.746;2023-05-24T01:54:11;99226.50;;;15.61;92.68
2675;BME280;1347;42.122;24.746;2023-05-24T01:56:40;99222.13;;;15.64;92.62
2675;BME280;1347;42.122;24.746;2023-05-24T01:59:10;99230.03;;;15.62;92.40
2675;BME280;1347;42.122;24.746;2023-05-24T02:01:38;99236.41;;;15.52;92.55
2675;BME280;1347;42.122;24.746;2023-05-24T02:04:06;99236.00;;;15.53;93.41
2675;BME280;1347;42.122;24.746;2023-05-24T02:06:33;99244.72;;;15.55;92.99
2675;BME280;1347;42.122;24.746;2023-05-24T02:09:00;99246.69;;;15.51;93.63
2675;BME280;1347;42.122;24.746;2023-05-24T02:11:27;99249.03;;;15.53;93.72
2675;BME280;1347;42.122;24.746;2023-05-24T02:13:54;99248.66;;;15.51;93.77
2675;BME280;1347;42.122;24.746;2023-05-24T02:16:22;99257.31;;;15.53;93.90
2675;BME280;1347;42.122;24.746;2023-05-24T02:18:51;99264.16;;;15.37;94.56
2675;BME280;1347;42.122;24.746;2023-05-24T02:21:17;99266.56;;;15.35;95.07
2675;BME280;1347;42.122;24.746;2023-05-24T02:23:44;99270.47;;;15.38;95.23
2675;BME280;1347;42.122;24.746;2023-05-24T02:26:11;99270.44;;;15.45;94.49
2675;BME280;1347;42.122;24.746;2023-05-24T02:28:39;99261.38;;;15.41;95.26
2675;BME280;1347;42.122;24.746;2023-05-24T02:31:06;99259.09;;;15.32;95.12
2675;BME280;1347;42.122;24.746;2023-05-24T02:33:34;99260.59;;;15.37;95.91
2675;BME280;1347;42.122;24.746;2023-05-24T02:36:01;99263.81;;;15.35;96.22
2675;BME280;1347;42.122;24.746;2023-05-24T02:38:28;99257.91;;;15.30;96.06
2675;BME280;1347;42.122;24.746;2023-05-24T02:40:56;99267.06;;;15.20;96.73
2675;BME280;1347;42.122;24.746;2023-05-24T02:43:23;99274.38;;;14.96;97.42
2675;BME280;1347;42.122;24.746;2023-05-24T02:45:50;99288.63;;;14.84;97.93
2675;BME280;1347;42.122;24.746;2023-05-24T02:48:16;99284.31;;;14.79;98.20
2675;BME280;1347;42.122;24.746;2023-05-24T02:50:45;99283.28;;;14.48;98.75
2675;BME280;1347;42.122;24.746;2023-05-24T02:53:12;99291.94;;;14.50;98.55
2675;BME280;1347;42.122;24.746;2023-05-24T02:55:38;99292.38;;;14.45;99.26
2675;BME280;1347;42.122;24.746;2023-05-24T02:58:08;99292.75;;;14.36;99.40
2675;BME280;1347;42.122;24.746;2023-05-24T03:00:36;99281.72;;;14.36;99.13
2675;BME280;1347;42.122;24.746;2023-05-24T03:03:03;99283.31;;;14.41;99.39
2675;BME280;1347;42.122;24.746;2023-05-24T03:05:30;99281.72;;;14.47;99.53
2675;BME280;1347;42.122;24.746;2023-05-24T03:07:58;99285.25;;;14.48;99.56
2675;BME280;1347;42.122;24.746;2023-05-24T03:10:25;99292.78;;;14.33;99.29
2675;BME280;1347;42.122;24.746;2023-05-24T03:12:52;99281.38;;;14.31;99.38
2675;BME280;1347;42.122;24.746;2023-05-24T03:15:18;99284.47;;;14.36;99.50
2675;BME280;1347;42.122;24.746;2023-05-24T03:17:45;99282.09;;;14.46;99.23
2675;BME280;1347;42.122;24.746;2023-05-24T03:20:12;99290.41;;;14.42;99.88
2675;BME280;1347;42.122;24.746;2023-05-24T03:22:40;99293.97;;;14.43;99.47
2675;BME280;1347;42.122;24.746;2023-05-24T03:25:09;99295.97;;;14.21;100.00
2675;BME280;1347;42.122;24.746;2023-05-24T03:27:36;99283.03;;;14.07;100.00
2675;BME280;1347;42.122;24.746;2023-05-24T03:30:03;99285.00;;;14.14;100.00
2675;BME280;1347;42.122;24.746;2023-05-24T03:32:31;99290.88;;;14.16;100.00
2675;BME280;1347;42.122;24.746;2023-05-24T03:34:57;99287.75;;;14.10;100.00
2675;BME280;1347;42.122;24.746;2023-05-24T03:37:26;99284.25;;;13.92;100.00
2675;BME280;1347;42.122;24.746;2023-05-24T03:39:53;99289.31;;;14.08;100.00
2675;BME280;1347;42.122;24.746;2023-05-24T03:42:21;99291.25;;;14.21;100.00
2675;BME280;1347;42.122;24.746;2023-05-24T03:44:48;99278.66;;;14.20;100.00
2675;BME280;1347;42.122;24.746;2023-05-24T03:47:15;99281.44;;;14.13;100.00
2675;BME280;1347;42.122;24.746;2023-05-24T03:49:42;99284.59;;;14.08;100.00
2675;BME280;1347;42.122;24.746;2023-05-24T03:52:08;99284.56;;;14.22;100.00
2675;BME280;1347;42.122;24.746;2023-05-24T03:54:36;99274.69;;;14.32;100.00
2675;BME280;1347;42.122;24.746;2023-05-24T03:57:03;99278.59;;;14.42;100.00
2675;BME280;1347;42.122;24.746;2023-05-24T03:59:31;99281.72;;;14.51;100.00
2675;BME280;1347;42.122;24.746;2023-05-24T04:01:58;99284.41;;;14.58;100.00
2675;BME280;1347;42.122;24.746;2023-05-24T04:04:25;99293.47;;;14.65;100.00
2675;BME280;1347;42.122;24.746;2023-05-24T04:06:52;99296.59;;;14.71;100.00
2675;BME280;1347;42.122;24.746;2023-05-24T04:09:21;99294.16;;;14.80;100.00
2675;BME280;1347;42.122;24.746;2023-05-24T04:11:49;99287.00;;;14.90;100.00
2675;BME280;1347;42.122;24.746;2023-05-24T04:14:15;99287.31;;;15.02;99.96
2675;BME280;1347;42.122;24.746;2023-05-24T04:16:44;99296.31;;;15.14;99.62
2675;BME280;1347;42.122;24.746;2023-05-24T04:19:11;99295.88;;;15.19;99.78
2675;BME280;1347;42.122;24.746;2023-05-24T04:21:38;99295.84;;;15.26;99.55
2675;BME280;1347;42.122;24.746;2023-05-24T04:24:05;99293.00;;;15.33;99.01
2675;BME280;1347;42.122;24.746;2023-05-24T04:26:33;99290.97;;;15.44;98.29
2675;BME280;1347;42.122;24.746;2023-05-24T04:29:02;99300.31;;;15.61;96.57
2675;BME280;1347;42.122;24.746;2023-05-24T04:31:29;99299.00;;;15.72;94.51
2675;BME280;1347;42.122;24.746;2023-05-24T04:33:59;99300.47;;;15.84;92.60
2675;BME280;1347;42.122;24.746;2023-05-24T04:36:26;99300.47;;;15.84;92.92
2675;BME280;1347;42.122;24.746;2023-05-24T04:38:53;99299.56;;;15.98;92.93
2675;BME280;1347;42.122;24.746;2023-05-24T04:41:20;99298.66;;;16.08;91.52
2675;BME280;1347;42.122;24.746;2023-05-24T04:43:48;99296.53;;;16.19;91.25
2675;BME280;1347;42.122;24.746;2023-05-24T04:46:15;99296.06;;;16.28;90.00
2675;BME280;1347;42.122;24.746;2023-05-24T04:48:42;99295.56;;;16.36;90.03
2675;BME280;1347;42.122;24.746;2023-05-24T04:51:10;99296.56;;;16.49;89.76
2675;BME280;1347;42.122;24.746;2023-05-24T04:53:37;99292.09;;;16.59;89.05
2675;BME280;1347;42.122;24.746;2023-05-24T04:56:05;99297.97;;;16.68;89.05
2675;BME280;1347;42.122;24.746;2023-05-24T04:58:31;99294.72;;;16.73;88.22
2675;BME280;1347;42.122;24.746;2023-05-24T05:00:59;99302.09;;;16.83;87.71
2675;BME280;1347;42.122;24.746;2023-05-24T05:03:27;99307.06;;;16.96;87.09
2675;BME280;1347;42.122;24.746;2023-05-24T05:05:54;99297.50;;;17.00;86.90
2675;BME280;1347;42.122;24.746;2023-05-24T05:08:22;99301.69;;;17.12;86.90
2675;BME280;1347;42.122;24.746;2023-05-24T05:10:49;99307.97;;;17.16;86.14
2675;BME280;1347;42.122;24.746;2023-05-24T05:13:16;99314.69;;;17.15;85.52
2675;BME280;1347;42.122;24.746;2023-05-24T05:15:42;99316.94;;;17.23;85.61
2675;BME280;1347;42.122;24.746;2023-05-24T05:18:09;99316.47;;;17.28;86.02
2675;BME280;1347;42.122;24.746;2023-05-24T05:20:36;99314.31;;;17.40;85.41
2675;BME280;1347;42.122;24.746;2023-05-24T05:23:03;99314.50;;;17.52;85.69
2675;BME280;1347;42.122;24.746;2023-05-24T05:25:31;99312.34;;;17.63;85.71
2675;BME280;1347;42.122;24.746;2023-05-24T05:27:58;99310.13;;;17.78;85.32
2675;BME280;1347;42.122;24.746;2023-05-24T05:30:25;99314.56;;;17.95;84.97
2675;BME280;1347;42.122;24.746;2023-05-24T05:32:52;99320.50;;;18.17;84.11
2675;BME280;1347;42.122;24.746;2023-05-24T05:35:19;99324.88;;;18.38;81.98
2675;BME280;1347;42.122;24.746;2023-05-24T05:37:46;99329.41;;;18.48;81.18
2675;BME280;1347;42.122;24.746;2023-05-24T05:40:13;99330.38;;;18.61;81.20
2675;BME280;1347;42.122;24.746;2023-05-24T05:42:41;99328.84;;;18.77;80.96
2675;BME280;1347;42.122;24.746;2023-05-24T05:45:08;99330.56;;;18.90;80.38
2675;BME280;1347;42.122;24.746;2023-05-24T05:47:35;99328.41;;;18.98;79.52
2675;BME280;1347;42.122;24.746;2023-05-24T05:50:06;99335.28;;;19.09;79.17
2675;BME280;1347;42.122;24.746;2023-05-24T05:52:33;99332.94;;;19.24;78.71
2675;BME280;1347;42.122;24.746;2023-05-24T05:55:00;99328.94;;;19.25;77.77
2675;BME280;1347;42.122;24.746;2023-05-24T05:57:27;99330.69;;;19.35;77.27
2675;BME280;1347;42.122;24.746;2023-05-24T05:59:55;99332.78;;;19.47;77.11
2675;BME280;1347;42.122;24.746;2023-05-24T06:02:22;99335.69;;;19.60;77.41
2675;BME280;1347;42.122;24.746;2023-05-24T06:04:49;99337.88;;;19.69;77.08
2675;BME280;1347;42.122;24.746;2023-05-24T06:07:16;99336.38;;;19.80;75.72
2675;BME280;1347;42.122;24.746;2023-05-24T06:09:43;99352.34;;;20.09;75.54
2675;BME280;1347;42.122;24.746;2023-05-24T06:12:10;99351.28;;;20.35;75.06
2675;BME280;1347;42.122;24.746;2023-05-24T06:14:37;99347.84;;;20.44;74.26
2675;BME280;1347;42.122;24.746;2023-05-24T06:17:05;99357.59;;;20.65;73.97
2675;BME280;1347;42.122;24.746;2023-05-24T06:19:32;99351.59;;;20.79;73.38
2675;BME280;1347;42.122;24.746;2023-05-24T06:21:59;99354.66;;;20.97;72.71
2675;BME280;1347;42.122;24.746;2023-05-24T06:24:44;99355.16;;;21.21;71.83
2675;BME280;1347;42.122;24.746;2023-05-24T06:27:11;99356.94;;;21.40;71.83
2675;BME280;1347;42.122;24.746;2023-05-24T06:33:13;99360.22;;;21.98;69.66
2675;BME280;1347;42.122;24.746;2023-05-24T06:35:47;99360.16;;;22.24;69.05
2675;BME280;1347;42.122;24.746;2023-05-24T06:38:35;99357.56;;;22.51;69.04
2675;BME280;1347;42.122;24.746;2023-05-24T06:41:05;99358.03;;;22.71;68.64
2675;BME280;1347;42.122;24.746;2023-05-24T06:43:42;99363.91;;;22.86;67.84
2675;BME280;1347;42.122;24.746;2023-05-24T06:46:12;99359.94;;;22.96;67.63
2675;BME280;1347;42.122;24.746;2023-05-24T06:49:21;99359.38;;;23.10;67.56
2675;BME280;1347;42.122;24.746;2023-05-24T06:51:47;99357.81;;;23.40;66.24
2675;BME280;1347;42.122;24.746;2023-05-24T06:54:20;99362.88;;;23.64;64.97
2675;BME280;1347;42.122;24.746;2023-05-24T06:56:53;99360.59;;;23.80;64.37
2675;BME280;1347;42.122;24.746;2023-05-24T06:59:26;99356.09;;;23.92;63.59
2675;BME280;1347;42.122;24.746;2023-05-24T07:02:03;99351.59;;;24.13;62.53
2675;BME280;1347;42.122;24.746;2023-05-24T07:04:54;99358.66;;;24.45;61.12
2675;BME280;1347;42.122;24.746;2023-05-24T07:07:45;99352.88;;;24.67;59.41
2675;BME280;1347;42.122;24.746;2023-05-24T07:10:12;99354.44;;;24.68;59.57
2675;BME280;1347;42.122;24.746;2023-05-24T07:12:39;99354.25;;;24.80;60.53
2675;BME280;1347;42.122;24.746;2023-05-24T07:15:07;99346.41;;;25.12;60.40
2675;BME280;1347;42.122;24.746;2023-05-24T07:17:34;99341.34;;;25.34;59.69
2675;BME280;1347;42.122;24.746;2023-05-24T07:20:03;99349.00;;;25.57;58.49
2675;BME280;1347;42.122;24.746;2023-05-24T07:22:36;99345.34;;;25.75;57.38
2675;BME280;1347;42.122;24.746;2023-05-24T07:25:03;99339.16;;;25.71;57.36
2675;BME280;1347;42.122;24.746;2023-05-24T07:27:30;99340.88;;;25.92;57.77
2675;BME280;1347;42.122;24.746;2023-05-24T07:29:57;99340.44;;;26.09;54.89
2675;BME280;1347;42.122;24.746;2023-05-24T07:32:24;99342.97;;;26.30;55.70
2675;BME280;1347;42.122;24.746;2023-05-24T07:34:51;99337.38;;;26.60;55.72
2675;BME280;1347;42.122;24.746;2023-05-24T07:37:19;99349.63;;;26.71;54.59
2675;BME280;1347;42.122;24.746;2023-05-24T07:39:48;99341.97;;;26.87;53.88
2675;BME280;1347;42.122;24.746;2023-05-24T07:42:15;99338.09;;;26.99;52.21
2675;BME280;1347;42.122;24.746;2023-05-24T07:44:42;99335.69;;;27.06;50.86
2675;BME280;1347;42.122;24.746;2023-05-24T07:47:09;99332.72;;;27.30;51.81
2675;BME280;1347;42.122;24.746;2023-05-24T07:49:36;99332.34;;;27.72;50.89
2675;BME280;1347;42.122;24.746;2023-05-24T07:52:03;99335.66;;;28.11;50.42
2675;BME280;1347;42.122;24.746;2023-05-24T07:54:31;99339.41;;;28.43;48.47
2675;BME280;1347;42.122;24.746;2023-05-24T07:56:58;99331.72;;;28.70;48.15
2675;BME280;1347;42.122;24.746;2023-05-24T07:59:26;99329.41;;;28.94;46.68
2675;BME280;1347;42.122;24.746;2023-05-24T08:01:53;99322.72;;;28.66;47.50
2675;BME280;1347;42.122;24.746;2023-05-24T08:04:25;99326.69;;;29.05;47.27
2675;BME280;1347;42.122;24.746;2023-05-24T08:06:52;99339.41;;;29.26;46.13
2675;BME280;1347;42.122;24.746;2023-05-24T08:09:20;99340.78;;;29.74;44.74
2675;BME280;1347;42.122;24.746;2023-05-24T08:11:48;99332.50;;;30.07;43.64
2675;BME280;1347;42.122;24.746;2023-05-24T08:14:15;99341.88;;;30.41;42.44
2675;BME280;1347;42.122;24.746;2023-05-24T08:16:41;99338.38;;;30.63;42.91
2675;BME280;1347;42.122;24.746;2023-05-24T08:19:08;99335.78;;;30.70;42.10
2675;BME280;1347;42.122;24.746;2023-05-24T08:21:35;99334.22;;;30.58;41.16
2675;BME280;1347;42.122;24.746;2023-05-24T08:24:02;99336.56;;;30.71;40.60
2675;BME280;1347;42.122;24.746;2023-05-24T08:26:29;99337.88;;;31.26;41.00
2675;BME280;1347;42.122;24.746;2023-05-24T08:28:57;99337.34;;;31.66;38.81
2675;BME280;1347;42.122;24.746;2023-05-24T08:31:24;99335.72;;;31.93;38.11
2675;BME280;1347;42.122;24.746;2023-05-24T08:33:51;99338.97;;;32.25;38.28
2675;BME280;1347;42.122;24.746;2023-05-24T08:36:19;99338.75;;;32.12;37.45
2675;BME280;1347;42.122;24.746;2023-05-24T08:38:46;99339.47;;;32.29;37.92
2675;BME280;1347;42.122;24.746;2023-05-24T08:41:13;99338.06;;;32.52;38.04
2675;BME280;1347;42.122;24.746;2023-05-24T08:43:41;99342.84;;;32.74;37.65
2675;BME280;1347;42.122;24.746;2023-05-24T08:46:11;99332.47;;;32.82;37.46
2675;BME280;1347;42.122;24.746;2023-05-24T08:48:43;99337.22;;;32.63;36.90
2675;BME280;1347;42.122;24.746;2023-05-24T08:51:13;99334.53;;;33.12;36.28
2675;BME280;1347;42.122;24.746;2023-05-24T08:53:40;99337.75;;;33.33;35.79
2675;BME280;1347;42.122;24.746;2023-05-24T08:56:16;99335.28;;;33.72;35.41
2675;BME280;1347;42.122;24.746;2023-05-24T08:58:43;99333.91;;;34.03;35.26
2675;BME280;1347;42.122;24.746;2023-05-24T09:01:13;99338.56;;;34.25;34.92
2675;BME280;1347;42.122;24.746;2023-05-24T09:03:42;99335.28;;;34.40;34.41
2675;BME280;1347;42.122;24.746;2023-05-24T09:06:11;99334.16;;;34.61;34.14
2675;BME280;1347;42.122;24.746;2023-05-24T09:08:39;99335.28;;;34.77;33.77
2675;BME280;1347;42.122;24.746;2023-05-24T09:11:08;99338.16;;;34.71;34.18
2675;BME280;1347;42.122;24.746;2023-05-24T09:13:35;99345.38;;;35.10;33.58
2675;BME280;1347;42.122;24.746;2023-05-24T09:16:02;99339.09;;;35.43;32.45
2675;BME280;1347;42.122;24.746;2023-05-24T09:18:30;99338.03;;;34.83;32.67
2675;BME280;1347;42.122;24.746;2023-05-24T09:20:57;99339.16;;;34.93;31.13
2675;BME280;1347;42.122;24.746;2023-05-24T09:23:24;99343.66;;;34.51;31.75
2675;BME280;1347;42.122;24.746;2023-05-24T09:25:51;99340.13;;;34.26;32.60
2675;BME280;1347;42.122;24.746;2023-05-24T09:28:18;99327.69;;;33.56;32.75
2675;BME280;1347;42.122;24.746;2023-05-24T09:30:57;99331.91;;;33.74;32.41
2675;BME280;1347;42.122;24.746;2023-05-24T09:33:27;99334.13;;;33.86;32.93
2675;BME280;1347;42.122;24.746;2023-05-24T09:35:57;99329.28;;;33.51;33.28
2675;BME280;1347;42.122;24.746;2023-05-24T09:38:25;99325.16;;;33.28;33.53
2675;BME280;1347;42.122;24.746;2023-05-24T09:41:00;99323.25;;;33.60;33.18
2675;BME280;1347;42.122;24.746;2023-05-24T09:43:28;99326.28;;;33.92;33.38
2675;BME280;1347;42.122;24.746;2023-05-24T09:45:55;99323.31;;;34.22;33.01
2675;BME280;1347;42.122;24.746;2023-05-24T09:48:25;99320.66;;;34.49;33.41
2675;BME280;1347;42.122;24.746;2023-05-24T09:51:14;99323.66;;;34.38;32.42
2675;BME280;1347;42.122;24.746;2023-05-24T09:53:43;99316.56;;;33.82;32.88
2675;BME280;1347;42.122;24.746;2023-05-24T09:56:11;99317.19;;;33.75;32.75
2675;BME280;1347;42.122;24.746;2023-05-24T09:58:38;99328.09;;;33.90;32.70
2675;BME280;1347;42.122;24.746;2023-05-24T10:01:07;99323.16;;;34.15;32.21
2675;BME280;1347;42.122;24.746;2023-05-24T10:03:35;99325.53;;;34.11;32.30
2675;BME280;1347;42.122;24.746;2023-05-24T10:06:02;99315.38;;;33.96;32.75
2675;BME280;1347;42.122;24.746;2023-05-24T10:08:34;99312.63;;;34.10;32.05
2675;BME280;1347;42.122;24.746;2023-05-24T10:11:04;99316.22;;;33.67;32.89
2675;BME280;1347;42.122;24.746;2023-05-24T10:13:31;99316.13;;;33.78;32.30
2675;BME280;1347;42.122;24.746;2023-05-24T10:16:00;99304.78;;;34.53;31.92
2675;BME280;1347;42.122;24.746;2023-05-24T10:18:27;99313.38;;;34.85;31.62
2675;BME280;1347;42.122;24.746;2023-05-24T10:20:55;99314.00;;;35.42;30.99
2675;BME280;1347;42.122;24.746;2023-05-24T10:23:29;99312.91;;;35.00;30.93
2675;BME280;1347;42.122;24.746;2023-05-24T10:26:02;99308.94;;;34.90;31.07
2675;BME280;1347;42.122;24.746;2023-05-24T10:28:32;99305.19;;;35.27;31.77
2675;BME280;1347;42.122;24.746;2023-05-24T10:31:04;99307.91;;;35.19;30.88
2675;BME280;1347;42.122;24.746;2023-05-24T10:33:35;99305.66;;;34.99;30.58
2675;BME280;1347;42.122;24.746;2023-05-24T10:36:03;99301.00;;;34.83;30.46
2675;BME280;1347;42.122;24.746;2023-05-24T10:38:31;99298.53;;;34.74;31.97
2675;BME280;1347;42.122;24.746;2023-05-24T10:41:00;99299.25;;;34.80;30.98
2675;BME280;1347;42.122;24.746;2023-05-24T10:43:28;99287.63;;;35.10;31.82
2675;BME280;1347;42.122;24.746;2023-05-24T10:45:55;99291.19;;;35.55;29.92
2675;BME280;1347;42.122;24.746;2023-05-24T10:48:41;99284.94;;;35.70;30.45
2675;BME280;1347;42.122;24.746;2023-05-24T10:51:30;99280.06;;;36.18;29.69
2675;BME280;1347;42.122;24.746;2023-05-24T10:54:11;99275.75;;;36.37;29.85
2675;BME280;1347;42.122;24.746;2023-05-24T10:56:46;99271.97;;;36.08;29.86
2675;BME280;1347;42.122;24.746;2023-05-24T10:59:30;99266.06;;;35.93;30.30
2675;BME280;1347;42.122;24.746;2023-05-24T11:02:00;99268.72;;;35.78;29.98
2675;BME280;1347;42.122;24.746;2023-05-24T11:04:31;99260.91;;;35.26;29.80
2675;BME280;1347;42.122;24.746;2023-05-24T11:07:02;99256.75;;;34.63;31.12
2675;BME280;1347;42.122;24.746;2023-05-24T11:09:30;99257.94;;;34.17;30.91
2675;BME280;1347;42.122;24.746;2023-05-24T11:12:01;99255.75;;;34.28;30.91
2675;BME280;1347;42.122;24.746;2023-05-24T11:14:33;99258.09;;;34.06;31.61
2675;BME280;1347;42.122;24.746;2023-05-24T11:17:01;99253.09;;;34.12;31.35
2675;BME280;1347;42.122;24.746;2023-05-24T11:19:32;99253.09;;;34.12;31.04
2675;BME280;1347;42.122;24.746;2023-05-24T11:22:01;99252.69;;;34.58;31.07
2675;BME280;1347;42.122;24.746;2023-05-24T11:24:28;99259.41;;;34.05;29.80
2675;BME280;1347;42.122;24.746;2023-05-24T11:26:56;99249.72;;;34.13;30.71
2675;BME280;1347;42.122;24.746;2023-05-24T11:29:25;99246.66;;;34.49;30.52
2675;BME280;1347;42.122;24.746;2023-05-24T11:31:53;99241.81;;;34.25;30.17
2675;BME280;1347;42.122;24.746;2023-05-24T11:34:22;99249.13;;;33.58;30.69
2675;BME280;1347;42.122;24.746;2023-05-24T11:36:51;99251.56;;;33.92;31.35
2675;BME280;1347;42.122;24.746;2023-05-24T11:39:19;99249.66;;;34.19;31.11
2675;BME280;1347;42.122;24.746;2023-05-24T11:41:48;99245.13;;;34.29;31.41
2675;BME280;1347;42.122;24.746;2023-05-24T11:44:16;99247.78;;;34.03;30.67
2675;BME280;1347;42.122;24.746;2023-05-24T11:46:45;99242.56;;;33.45;31.80
2675;BME280;1347;42.122;24.746;2023-05-24T11:49:12;99255.31;;;32.43;33.41
2675;BME280;1347;42.122;24.746;2023-05-24T11:51:40;99239.38;;;31.76;34.73
2675;BME280;1347;42.122;24.746;2023-05-24T11:54:07;99239.53;;;31.32;35.47
2675;BME280;1347;42.122;24.746;2023-05-24T11:56:35;99237.25;;;30.80;36.01
2675;BME280;1347;42.122;24.746;2023-05-24T11:59:13;99241.31;;;30.34;37.53
2675;BME280;1347;42.122;24.746;2023-05-24T12:01:41;99238.00;;;30.42;37.37
2675;BME280;1347;42.122;24.746;2023-05-24T12:04:10;99234.69;;;30.77;36.56
2675;BME280;1347;42.122;24.746;2023-05-24T12:06:38;99223.22;;;31.60;35.51
2675;BME280;1347;42.122;24.746;2023-05-24T12:09:05;99227.00;;;31.79;35.37
2675;BME280;1347;42.122;24.746;2023-05-24T12:11:38;99216.25;;;32.13;34.03
2675;BME280;1347;42.122;24.746;2023-05-24T12:14:06;99208.72;;;32.63;33.61
2675;BME280;1347;42.122;24.746;2023-05-24T12:16:35;99196.72;;;33.05;33.54
2675;BME280;1347;42.122;24.746;2023-05-24T12:19:02;99199.38;;;34.27;31.53
2675;BME280;1347;42.122;24.746;2023-05-24T12:21:31;99200.38;;;35.59;30.67
2675;BME280;1347;42.122;24.746;2023-05-24T12:24:09;99201.69;;;36.94;30.05
2675;BME280;1347;42.122;24.746;2023-05-24T12:26:39;99199.31;;;36.09;29.84
2675;BME280;1347;42.122;24.746;2023-05-24T12:29:06;99204.91;;;36.70;29.63
2675;BME280;1347;42.122;24.746;2023-05-24T12:31:34;99193.47;;;36.91;29.09
2675;BME280;1347;42.122;24.746;2023-05-24T12:34:01;99194.56;;;37.73;28.24
2675;BME280;1347;42.122;24.746;2023-05-24T12:36:32;99185.38;;;37.31;28.23
2675;BME280;1347;42.122;24.746;2023-05-24T12:39:15;99188.47;;;38.35;27.77
2675;BME280;1347;42.122;24.746;2023-05-24T12:41:43;99210.97;;;38.23;27.22
2675;BME280;1347;42.122;24.746;2023-05-24T12:44:10;99187.22;;;35.83;28.86
2675;BME280;1347;42.122;24.746;2023-05-24T12:46:37;99195.53;;;35.67;28.90
2675;BME280;1347;42.122;24.746;2023-05-24T12:49:04;99195.72;;;34.45;30.55
2675;BME280;1347;42.122;24.746;2023-05-24T12:51:32;99194.72;;;33.24;31.07
2675;BME280;1347;42.122;24.746;2023-05-24T12:54:01;99190.91;;;32.62;31.87
2675;BME280;1347;42.122;24.746;2023-05-24T12:56:29;99187.38;;;31.68;33.00
2675;BME280;1347;42.122;24.746;2023-05-24T12:58:56;99189.75;;;31.48;34.12
2675;BME280;1347;42.122;24.746;2023-05-24T13:01:23;99188.00;;;32.73;32.27
2675;BME280;1347;42.122;24.746;2023-05-24T13:03:50;99198.03;;;33.29;32.16
2675;BME280;1347;42.122;24.746;2023-05-24T13:06:18;99196.44;;;34.32;30.30
2675;BME280;1347;42.122;24.746;2023-05-24T13:08:46;99191.88;;;34.24;30.32
2675;BME280;1347;42.122;24.746;2023-05-24T13:11:13;99181.94;;;34.94;30.53
2675;BME280;1347;42.122;24.746;2023-05-24T13:13:40;99187.91;;;35.36;29.38
2675;BME280;1347;42.122;24.746;2023-05-24T13:16:09;99196.41;;;35.23;29.04
2675;BME280;1347;42.122;24.746;2023-05-24T13:18:36;99186.28;;;34.82;29.45
2675;BME280;1347;42.122;24.746;2023-05-24T13:21:03;99178.06;;;34.15;30.21
2675;BME280;1347;42.122;24.746;2023-05-24T13:23:30;99182.41;;;33.16;31.13